createdAt,value
2018-10-18T00:01:45.429Z,14.73
2018-10-18T00:04:13.634Z,15.00
2018-10-18T00:06:41.847Z,14.33
2018-10-18T00:09:11.058Z,15.80
2018-10-18T00:11:39.269Z,14.57
2018-10-18T00:14:07.546Z,16.27
2018-10-18T00:16:35.646Z,16.30
2018-10-18T00:19:03.848Z,16.83
2018-10-18T00:21:32.041Z,15.63
2018-10-18T00:24:00.256Z,14.33
2018-10-18T00:26:28.435Z,14.50
2018-10-18T00:28:56.634Z,15.83
2018-10-18T00:31:24.850Z,14.80
2018-10-18T00:33:53.074Z,15.57
2018-10-18T00:36:21.266Z,14.00
2018-10-18T00:38:49.441Z,13.80
2018-10-18T00:41:17.633Z,14.90
2018-10-18T00:43:45.865Z,14.90
2018-10-18T00:46:14.053Z,15.43
2018-10-18T00:48:42.225Z,15.13
2018-10-18T00:51:10.468Z,15.23
2018-10-18T00:53:38.658Z,14.27
2018-10-18T00:56:06.925Z,13.90
2018-10-18T00:58:35.060Z,13.67
2018-10-18T01:01:03.245Z,16.00
2018-10-18T01:03:31.404Z,15.40
2018-10-18T01:05:59.655Z,15.60
2018-10-18T01:08:27.845Z,14.43
2018-10-18T01:10:56.066Z,15.03
2018-10-18T01:13:24.266Z,13.50
2018-10-18T01:15:52.444Z,15.10
2018-10-18T01:18:20.590Z,15.13
2018-10-18T01:20:48.803Z,15.50
2018-10-18T01:23:16.970Z,16.23
2018-10-18T01:25:45.182Z,16.93
2018-10-18T01:28:13.369Z,16.70
2018-10-18T01:30:41.555Z,18.17
2018-10-18T01:33:09.726Z,18.07
2018-10-18T01:35:37.913Z,17.87
2018-10-18T01:38:06.222Z,17.23
2018-10-18T01:40:34.361Z,17.40
2018-10-18T01:43:02.610Z,18.30
2018-10-18T01:45:30.790Z,17.63
2018-10-18T01:47:59.052Z,16.47
2018-10-18T01:50:27.225Z,16.53
2018-10-18T01:52:55.405Z,16.77
2018-10-18T01:55:23.621Z,16.87
2018-10-18T01:57:51.797Z,17.50
2018-10-18T02:00:20.059Z,16.70
2018-10-18T02:02:48.137Z,17.97
2018-10-18T02:05:16.326Z,16.57
2018-10-18T02:07:44.488Z,18.17
2018-10-18T02:10:12.706Z,16.70
2018-10-18T02:12:40.882Z,16.00
2018-10-18T02:15:10.542Z,16.07
2018-10-18T02:17:38.829Z,16.00
2018-10-18T02:20:07.601Z,15.70
2018-10-18T02:22:35.854Z,16.43
2018-10-18T02:25:04.515Z,15.50
2018-10-18T02:27:32.968Z,15.97
2018-10-18T02:30:01.435Z,16.10
2018-10-18T02:53:30.391Z,18.30
2018-10-18T02:55:58.613Z,17.33
2018-10-18T02:58:26.868Z,17.90
2018-10-18T03:43:10.368Z,18.70
2018-10-18T03:45:38.582Z,18.97
2018-10-18T03:48:06.837Z,17.80
2018-10-18T04:23:29.022Z,18.23
2018-10-18T04:25:57.214Z,17.50
2018-10-18T04:28:25.415Z,18.03
2018-10-18T04:30:53.633Z,18.13
2018-10-18T04:33:21.931Z,18.53
2018-10-18T04:35:50.216Z,17.60
2018-10-18T04:38:18.470Z,17.90
2018-10-18T04:40:46.795Z,17.40
2018-10-18T04:43:14.998Z,18.43
2018-10-18T04:45:43.345Z,17.20
2018-10-18T04:48:11.936Z,17.43
2018-10-18T04:50:40.266Z,18.90
2018-10-18T04:53:08.589Z,18.87
2018-10-18T04:55:36.817Z,18.60
2018-10-18T04:58:05.605Z,19.10
2018-10-18T05:00:33.777Z,17.93
2018-10-18T05:03:01.998Z,19.47
2018-10-18T05:05:41.551Z,19.60
2018-10-18T05:08:09.771Z,18.60
2018-10-18T05:10:38.126Z,18.47
2018-10-18T05:13:06.435Z,20.20
2018-10-18T05:15:34.714Z,20.20
2018-10-18T05:18:03.126Z,18.50
2018-10-18T05:20:31.512Z,18.43
2018-10-18T05:22:59.722Z,18.90
2018-10-18T05:25:27.953Z,19.80
2018-10-18T05:27:56.078Z,18.80
2018-10-18T05:30:24.288Z,17.33
2018-10-18T05:32:52.554Z,19.00
2018-10-18T05:35:20.824Z,20.43
2018-10-18T05:37:49.055Z,19.50
2018-10-18T05:40:17.273Z,19.30
2018-10-18T05:42:45.482Z,19.10
2018-10-18T05:45:13.737Z,18.73
2018-10-18T05:47:42.503Z,18.70
2018-10-18T05:50:11.081Z,18.83
2018-10-18T05:52:39.441Z,17.80
2018-10-18T05:55:08.969Z,18.50
2018-10-18T05:57:37.215Z,17.43
2018-10-18T06:00:14.738Z,17.57
2018-10-18T06:02:42.962Z,17.97
2018-10-18T06:05:12.609Z,19.53
2018-10-18T06:07:41.305Z,20.20
2018-10-18T06:10:21.685Z,18.20
2018-10-18T06:12:50.164Z,20.17
2018-10-18T06:15:18.390Z,20.00
2018-10-18T06:17:46.564Z,19.87
2018-10-18T06:20:14.758Z,17.60
2018-10-18T06:22:43.040Z,19.67
2018-10-18T06:25:11.973Z,20.73
2018-10-18T06:27:40.126Z,19.00
2018-10-18T06:30:10.209Z,18.77
2018-10-18T06:32:38.401Z,17.17
2018-10-18T06:35:07.610Z,16.53
2018-10-18T06:37:36.227Z,17.23
2018-10-18T06:40:05.037Z,17.93
2018-10-18T06:42:33.208Z,18.00
2018-10-18T06:45:01.423Z,18.97
2018-10-18T06:47:29.652Z,20.40
2018-10-18T06:49:57.863Z,20.77
2018-10-18T06:52:25.989Z,19.83
2018-10-18T06:54:54.229Z,20.73
2018-10-18T06:57:22.384Z,21.30
2018-10-18T06:59:50.607Z,19.67
2018-10-18T07:02:18.738Z,19.87
2018-10-18T07:04:46.923Z,19.77
2018-10-18T07:07:15.073Z,21.37
2018-10-18T07:09:43.282Z,20.27
2018-10-18T07:12:11.493Z,20.57
2018-10-18T07:14:39.661Z,20.63
2018-10-18T07:17:08.018Z,20.77
2018-10-18T07:19:36.218Z,20.87
2018-10-18T07:22:04.426Z,20.57
2018-10-18T07:24:32.837Z,21.33
2018-10-18T07:27:01.046Z,20.43
2018-10-18T07:29:29.307Z,21.50
2018-10-18T07:31:57.499Z,21.63
2018-10-18T07:34:25.755Z,21.43
2018-10-18T07:36:54.127Z,21.70
2018-10-18T07:39:22.349Z,22.00
2018-10-18T07:41:50.569Z,21.53
2018-10-18T07:44:18.811Z,21.03
2018-10-18T07:46:47.194Z,21.00
2018-10-18T07:49:15.444Z,20.40
2018-10-18T07:51:43.705Z,21.83
2018-10-18T07:54:11.927Z,21.53
2018-10-18T07:56:40.169Z,19.73
2018-10-18T07:59:08.398Z,21.47
2018-10-18T08:01:36.595Z,20.90
2018-10-18T08:04:05.390Z,21.10
2018-10-18T08:06:33.600Z,21.30
2018-10-18T08:09:01.857Z,21.40
2018-10-18T08:11:30.061Z,22.20
2018-10-18T08:13:58.242Z,21.73
2018-10-18T08:16:26.457Z,21.30
2018-10-18T08:18:54.790Z,19.30
2018-10-18T08:21:23.090Z,21.30
2018-10-18T08:23:51.295Z,21.07
2018-10-18T08:26:19.574Z,19.17
2018-10-18T08:28:47.938Z,20.10
2018-10-18T08:31:16.417Z,19.83
2018-10-18T08:33:44.670Z,20.30
2018-10-18T08:36:13.054Z,21.10
2018-10-18T08:38:41.262Z,20.10
2018-10-18T08:41:09.826Z,20.67
2018-10-18T08:43:38.114Z,22.07
2018-10-18T08:46:06.440Z,20.53
2018-10-18T08:48:34.707Z,20.87
2018-10-18T08:51:02.998Z,21.67
2018-10-18T08:53:31.258Z,22.37
2018-10-18T08:56:01.600Z,22.37
2018-10-18T08:58:29.826Z,23.00
2018-10-18T09:00:58.123Z,22.70
2018-10-18T09:03:26.589Z,24.17
2018-10-18T09:05:54.861Z,26.70
2018-10-18T09:08:23.172Z,26.20
2018-10-18T09:10:51.434Z,27.93
2018-10-18T09:13:19.794Z,26.77
2018-10-18T09:15:48.004Z,29.13
2018-10-18T09:18:16.221Z,27.60
2018-10-18T09:20:44.509Z,28.20
2018-10-18T09:23:12.723Z,28.07
2018-10-18T09:25:40.996Z,28.47
2018-10-18T09:28:09.222Z,28.07
2018-10-18T09:30:37.590Z,30.57
2018-10-18T09:33:05.828Z,28.30
2018-10-18T09:38:29.361Z,29.00
2018-10-18T09:40:57.556Z,28.30
2018-10-18T09:43:25.826Z,28.87
2018-10-18T09:45:54.087Z,31.00
2018-10-18T09:48:22.394Z,30.43
2018-10-18T09:50:50.636Z,28.10
2018-10-18T09:53:18.983Z,27.63
2018-10-18T09:55:47.193Z,29.97
2018-10-18T09:58:15.458Z,28.70
2018-10-18T10:00:49.249Z,27.90
2018-10-18T10:03:18.474Z,28.27
2018-10-18T10:05:46.722Z,28.20
2018-10-18T10:08:14.987Z,28.50
2018-10-18T10:10:43.217Z,27.50
2018-10-18T10:13:11.492Z,28.80
2018-10-18T10:15:39.739Z,26.40
2018-10-18T10:18:10.348Z,28.97
2018-10-18T10:20:38.642Z,28.30
2018-10-18T10:23:06.862Z,26.53
2018-10-18T10:25:35.810Z,26.17
2018-10-18T10:28:04.507Z,28.57
2018-10-18T10:30:33.162Z,26.90
2018-10-18T10:33:01.597Z,27.17
2018-10-18T10:35:29.791Z,25.97
2018-10-18T10:37:57.999Z,26.43
2018-10-18T10:40:26.252Z,26.80
2018-10-18T10:42:55.157Z,26.10
2018-10-18T10:45:23.806Z,24.73
2018-10-18T10:47:52.301Z,26.30
2018-10-18T10:50:20.662Z,26.10
2018-10-18T10:52:48.839Z,25.33
2018-10-18T10:55:17.128Z,24.10
2018-10-18T10:57:45.415Z,24.00
2018-10-18T11:00:17.793Z,25.73
2018-10-18T11:02:46.124Z,24.97
2018-10-18T11:05:14.323Z,23.70
2018-10-18T11:07:42.577Z,22.97
2018-10-18T11:10:10.802Z,23.07
2018-10-18T11:12:39.037Z,21.50
2018-10-18T11:15:07.321Z,22.17
2018-10-18T11:17:35.533Z,24.20
2018-10-18T11:20:03.808Z,24.60
2018-10-18T11:22:32.129Z,23.30
2018-10-18T11:25:00.355Z,23.30
2018-10-18T11:30:09.566Z,22.20
2018-10-18T11:32:37.648Z,22.13
2018-10-18T11:35:06.300Z,22.67
2018-10-18T11:37:34.566Z,21.70
2018-10-18T11:40:02.866Z,22.73
2018-10-18T11:42:31.186Z,22.30
2018-10-18T11:44:59.423Z,22.63
2018-10-18T11:47:27.688Z,23.33
2018-10-18T11:49:55.987Z,24.33
2018-10-18T11:52:24.261Z,23.20
2018-10-18T11:54:52.561Z,22.70
2018-10-18T11:57:20.790Z,25.20
2018-10-18T11:59:49.070Z,24.40
2018-10-18T12:02:17.372Z,22.67
2018-10-18T12:04:45.582Z,23.20
2018-10-18T12:07:13.899Z,23.23
2018-10-18T12:09:42.328Z,22.17
2018-10-18T12:12:10.641Z,24.07
2018-10-18T12:14:38.886Z,24.00
2018-10-18T12:17:07.161Z,22.57
2018-10-18T12:19:35.427Z,23.70
2018-10-18T12:22:03.762Z,25.30
2018-10-18T12:24:34.207Z,23.13
2018-10-18T12:27:02.545Z,22.53
2018-10-18T12:29:30.715Z,49.43
2018-10-18T12:31:58.985Z,22.30
2018-10-18T12:34:27.234Z,22.47
2018-10-18T12:36:55.473Z,24.10
2018-10-18T12:39:23.776Z,23.60
2018-10-18T12:41:52.086Z,22.13
2018-10-18T12:44:20.331Z,19.87
2018-10-18T12:46:48.624Z,20.30
2018-10-18T12:49:16.938Z,21.00
2018-10-18T12:51:45.202Z,21.10
2018-10-18T12:54:13.657Z,23.10
2018-10-18T12:56:41.791Z,22.70
2018-10-18T12:59:10.029Z,20.27
2018-10-18T13:01:38.303Z,21.23
2018-10-18T13:04:06.596Z,22.77
2018-10-18T13:06:34.855Z,19.40
2018-10-18T13:09:03.549Z,20.40
2018-10-18T13:11:31.790Z,20.40
2018-10-18T13:14:00.142Z,20.63
2018-10-18T13:16:28.405Z,18.97
2018-10-18T13:18:56.716Z,17.90
2018-10-18T13:21:24.952Z,17.60
2018-10-18T13:23:53.248Z,17.77
2018-10-18T13:26:21.508Z,17.70
2018-10-18T13:28:49.833Z,17.70
2018-10-18T13:31:18.502Z,17.30
2018-10-18T13:33:46.823Z,17.60
2018-10-18T13:36:15.159Z,17.60
2018-10-18T13:38:43.266Z,19.07
2018-10-18T13:41:11.488Z,18.97
2018-10-18T13:43:39.840Z,16.73
2018-10-18T13:46:30.834Z,17.40
2018-10-18T13:48:59.017Z,17.17
2018-10-18T13:51:27.251Z,17.27
2018-10-18T13:53:55.643Z,17.67
2018-10-18T13:56:23.906Z,16.60
2018-10-18T13:58:52.326Z,18.17
2018-10-18T14:01:20.567Z,17.90
2018-10-18T14:03:48.907Z,17.53
2018-10-18T14:06:17.460Z,17.00
2018-10-18T14:08:45.874Z,16.97
2018-10-18T14:11:14.704Z,16.47
2018-10-18T14:13:42.892Z,17.10
2018-10-18T14:16:11.195Z,16.47
2018-10-18T14:18:39.415Z,14.83
2018-10-18T14:21:08.057Z,16.80
2018-10-18T14:23:36.277Z,15.63
2018-10-18T14:26:04.556Z,15.60
2018-10-18T14:28:32.696Z,16.43
2018-10-18T14:31:01.028Z,16.20
2018-10-18T14:33:29.107Z,16.67
2018-10-18T14:35:57.293Z,16.87
2018-10-18T14:38:25.537Z,17.03
2018-10-18T14:40:53.748Z,16.70
2018-10-18T14:43:21.929Z,18.40
2018-10-18T14:45:50.127Z,17.43
2018-10-18T14:48:18.303Z,17.23
2018-10-18T14:50:46.861Z,17.30
2018-10-18T14:53:15.095Z,16.90
2018-10-18T14:55:43.220Z,17.20
2018-10-18T14:58:11.421Z,16.80
2018-10-18T15:00:39.714Z,15.60
2018-10-18T15:03:07.898Z,15.87
2018-10-18T15:05:36.081Z,15.83
2018-10-18T15:08:04.346Z,15.77
2018-10-18T15:10:32.468Z,16.20
2018-10-18T15:13:02.524Z,16.67
2018-10-18T15:15:30.911Z,16.30
2018-10-18T15:17:59.107Z,15.80
2018-10-18T15:20:27.373Z,15.33
2018-10-18T15:22:55.713Z,14.77
2018-10-18T15:25:24.024Z,12.73
2018-10-18T15:27:52.198Z,12.00
2018-10-18T15:30:20.277Z,12.10
2018-10-18T15:32:48.467Z,12.30
2018-10-18T15:35:16.765Z,13.13
2018-10-18T15:37:44.898Z,12.67
2018-10-18T15:40:13.054Z,12.97
2018-10-18T15:42:41.245Z,13.97
2018-10-18T15:45:10.112Z,12.20
2018-10-18T15:47:38.451Z,12.60
2018-10-18T15:50:08.142Z,11.33
2018-10-18T15:52:36.331Z,12.03
2018-10-18T15:55:04.574Z,11.60
2018-10-18T15:57:32.762Z,11.00
2018-10-18T16:00:00.988Z,11.23
2018-10-18T16:02:29.426Z,11.90
2018-10-18T16:04:57.686Z,11.37
2018-10-18T16:07:25.850Z,11.37
2018-10-18T16:09:54.097Z,11.20
2018-10-18T16:12:22.647Z,10.83
2018-10-18T16:14:51.048Z,12.30
2018-10-18T16:17:19.322Z,11.20
2018-10-18T16:19:47.490Z,12.27
2018-10-18T16:22:15.681Z,11.83
2018-10-18T16:24:43.897Z,12.13
2018-10-18T16:27:12.102Z,13.07
2018-10-18T16:29:40.375Z,12.47
2018-10-18T16:32:08.808Z,13.80
2018-10-18T16:34:37.103Z,12.03
2018-10-18T16:37:08.190Z,13.20
2018-10-18T16:39:36.420Z,12.30
2018-10-18T16:42:04.851Z,13.33
2018-10-18T16:44:33.334Z,13.83
2018-10-18T16:47:01.735Z,12.93
2018-10-18T16:49:30.213Z,13.40
2018-10-18T16:52:00.093Z,13.13
2018-10-18T16:54:28.468Z,13.80
2018-10-18T16:56:56.839Z,13.67
2018-10-18T16:59:25.209Z,14.30
2018-10-18T17:01:53.793Z,13.10
2018-10-18T17:04:22.301Z,14.27
2018-10-18T17:06:50.559Z,14.60
2018-10-18T17:09:19.127Z,15.30
2018-10-18T17:11:47.672Z,13.87
2018-10-18T17:14:16.108Z,15.77
2018-10-18T17:16:44.535Z,15.47
2018-10-18T17:19:12.942Z,16.73
2018-10-18T17:21:41.198Z,15.83
2018-10-18T17:24:09.458Z,15.97
2018-10-18T17:26:37.757Z,17.33
2018-10-18T17:29:06.114Z,18.23
2018-10-18T17:31:34.561Z,19.10
2018-10-18T17:34:03.318Z,17.27
2018-10-18T17:36:31.682Z,19.40
2018-10-18T17:38:59.934Z,17.47
2018-10-18T17:41:28.275Z,19.67
2018-10-18T17:43:56.480Z,18.30
2018-10-18T17:46:24.666Z,18.57
2018-10-18T17:48:52.890Z,19.37
2018-10-18T17:51:21.129Z,19.87
2018-10-18T17:53:49.403Z,19.23
2018-10-18T17:56:17.905Z,20.60
2018-10-18T17:58:46.058Z,20.50
2018-10-18T18:01:14.417Z,21.23
2018-10-18T18:03:42.769Z,21.30
2018-10-18T18:06:11.211Z,19.97
2018-10-18T18:08:39.325Z,21.60
2018-10-18T18:11:07.632Z,21.00
2018-10-18T18:13:35.916Z,21.30
2018-10-18T18:16:04.360Z,20.43
2018-10-18T18:21:21.276Z,21.07
2018-10-18T18:23:49.602Z,21.53
2018-10-18T18:26:17.803Z,22.30
2018-10-18T18:28:45.981Z,20.67
2018-10-18T18:31:14.224Z,21.47
2018-10-18T18:33:42.389Z,21.03
2018-10-18T18:36:10.606Z,22.37
2018-10-18T18:38:38.808Z,20.23
2018-10-18T18:41:07.086Z,22.37
2018-10-18T18:43:35.301Z,20.80
2018-10-18T18:46:03.516Z,21.73
2018-10-18T18:48:31.706Z,20.70
2018-10-18T18:51:00.008Z,20.10
2018-10-18T18:53:28.158Z,22.20
2018-10-18T18:55:56.413Z,21.60
2018-10-18T18:58:24.664Z,19.50
2018-10-18T19:00:53.492Z,24.13
2018-10-18T19:03:21.698Z,20.83
2018-10-18T19:05:49.869Z,19.93
2018-10-18T19:08:18.074Z,21.87
2018-10-18T19:10:46.275Z,21.43
2018-10-18T19:13:14.478Z,19.03
2018-10-18T19:15:42.690Z,22.20
2018-10-18T19:18:10.906Z,20.60
2018-10-18T19:20:39.130Z,21.70
2018-10-18T19:23:07.428Z,20.70
2018-10-18T19:25:35.622Z,22.10
2018-10-18T19:28:03.833Z,20.93
2018-10-18T19:30:32.036Z,20.47
2018-10-18T19:33:00.238Z,19.97
2018-10-18T19:35:28.441Z,20.20
2018-10-18T19:37:56.755Z,17.63
2018-10-18T19:40:24.933Z,18.67
2018-10-18T19:42:53.170Z,18.20
2018-10-18T19:45:22.407Z,19.60
2018-10-18T19:47:50.610Z,20.20
2018-10-18T19:50:23.207Z,19.97
2018-10-18T19:52:51.486Z,20.47
2018-10-18T19:55:19.661Z,18.90
2018-10-18T19:57:47.890Z,19.57
2018-10-18T20:00:16.070Z,20.00
2018-10-18T20:02:44.294Z,18.00
2018-10-18T20:05:12.486Z,17.30
2018-10-18T20:07:40.755Z,20.57
2018-10-18T20:10:09.568Z,20.00
2018-10-18T20:12:37.809Z,19.53
2018-10-18T20:15:06.723Z,20.87
2018-10-18T20:17:35.026Z,20.63
2018-10-18T20:20:03.503Z,21.13
2018-10-18T20:22:31.638Z,21.77
2018-10-18T20:25:00.035Z,21.10
2018-10-18T20:27:28.071Z,20.17
2018-10-18T20:29:56.295Z,21.17
2018-10-18T20:32:24.666Z,20.63
2018-10-18T20:34:52.809Z,21.53
2018-10-18T20:37:21.001Z,19.50
2018-10-18T20:39:49.445Z,20.07
2018-10-18T20:42:17.542Z,21.60
2018-10-18T20:44:45.726Z,21.30
2018-10-18T20:47:14.055Z,20.60
2018-10-18T20:49:42.138Z,20.20
2018-10-18T20:52:10.381Z,21.03
2018-10-18T20:54:38.555Z,20.60
2018-10-18T20:57:06.767Z,20.70
2018-10-18T20:59:34.936Z,21.73
2018-10-18T21:02:03.155Z,20.93
2018-10-18T21:04:31.329Z,20.93
2018-10-18T21:06:59.644Z,21.07
2018-10-18T21:09:27.822Z,20.47
2018-10-18T21:11:56.055Z,20.60
2018-10-18T21:14:24.185Z,20.90
2018-10-18T21:16:52.417Z,20.63
2018-10-18T21:19:20.586Z,19.80
2018-10-18T21:21:48.884Z,21.33
2018-10-18T21:24:17.014Z,20.03
2018-10-18T21:26:45.232Z,21.40
2018-10-18T21:29:13.535Z,21.47
2018-10-18T21:31:41.695Z,20.80
2018-10-18T21:34:09.925Z,20.87
2018-10-18T21:36:38.061Z,20.70
2018-10-18T21:39:07.073Z,19.10
2018-10-18T21:41:35.198Z,20.00
2018-10-18T21:44:03.397Z,20.17
2018-10-18T21:46:31.595Z,19.60
2018-10-18T21:48:59.872Z,21.07
2018-10-18T21:51:28.007Z,20.40
2018-10-18T21:53:56.222Z,20.07
2018-10-18T21:56:24.413Z,20.00
2018-10-18T21:58:52.605Z,20.90
2018-10-18T22:01:20.988Z,20.30
2018-10-18T22:03:49.160Z,19.80
2018-10-18T22:06:17.354Z,20.03
2018-10-18T22:08:45.534Z,20.70
2018-10-18T22:11:13.713Z,21.40
2018-10-18T22:13:41.905Z,21.27
2018-10-18T22:16:10.067Z,22.03
2018-10-18T22:18:38.233Z,19.70
2018-10-18T22:21:06.488Z,23.13
2018-10-18T22:23:34.661Z,24.57
2018-10-18T22:26:02.824Z,25.97
2018-10-18T22:28:31.022Z,25.50
2018-10-18T22:30:59.198Z,24.97
2018-10-18T22:33:27.402Z,23.23
2018-10-18T22:35:55.591Z,22.73
2018-10-18T22:38:23.748Z,20.40
2018-10-18T22:40:51.957Z,22.17
2018-10-18T22:43:20.114Z,20.90
2018-10-18T22:45:53.630Z,22.60
2018-10-18T22:48:21.838Z,22.00
2018-10-18T22:50:49.974Z,21.03
2018-10-18T22:53:18.139Z,23.27
2018-10-18T22:55:46.313Z,21.30
2018-10-18T22:58:14.478Z,22.80
2018-10-18T23:00:46.866Z,21.80
2018-10-18T23:03:15.214Z,21.53
2018-10-18T23:05:43.417Z,21.80
2018-10-18T23:08:11.673Z,22.53
2018-10-18T23:10:39.856Z,20.77
2018-10-18T23:13:08.269Z,20.50
2018-10-18T23:15:36.460Z,21.23
2018-10-18T23:18:05.115Z,20.63
2018-10-18T23:20:33.275Z,20.30
2018-10-18T23:23:01.458Z,21.00
2018-10-18T23:25:29.601Z,20.33
2018-10-18T23:27:57.784Z,20.77
2018-10-18T23:30:25.937Z,20.93
2018-10-18T23:32:54.223Z,21.03
2018-10-18T23:35:22.342Z,21.77
2018-10-18T23:37:50.517Z,20.17
2018-10-18T23:40:18.689Z,19.73
2018-10-18T23:42:46.858Z,20.93
2018-10-18T23:45:15.057Z,22.40
2018-10-18T23:47:43.217Z,21.13
2018-10-18T23:50:11.390Z,21.20
2018-10-18T23:52:39.546Z,21.60
2018-10-18T23:55:07.721Z,20.90
2018-10-18T23:57:35.846Z,22.00
